This is the latest recevied weather packets stored in our database for station/object KC5EZZ-2. If no packets are shown the sender has not sent any weather packets the latest 1 day(s).
| Time | Temp. | Humidity | Pressure | Rain* | Wind** | Luminosity | Snow |
|---|---|---|---|---|---|---|---|
| 1777988632 | 22.22° C | - | - | 0 mm | 4.02 m/s, 204° | - | - |
| 1777988333 | 22.22° C | - | - | 0 mm | 3.58 m/s, 219° | - | - |
| 1777988064 | 22.22° C | - | - | 0 mm | 4.47 m/s, 162° | - | - |
| 1777988033 | 22.22° C | - | - | 0 mm | 4.47 m/s, 162° | - | - |
| 1777987729 | 21.67° C | - | - | 0 mm | 3.13 m/s, 221° | - | - |
| 1777987461 | 21.67° C | - | - | 0 mm | 3.58 m/s, 226° | - | - |
| 1777987429 | 21.67° C | - | - | 0 mm | 3.58 m/s, 226° | - | - |
| 1777987130 | 21.11° C | - | - | 0 mm | 3.58 m/s, 214° | - | - |
| 1777986858 | 21.11° C | - | - | 0 mm | 4.02 m/s, 184° | - | - |
| 1777986835 | 21.11° C | - | - | 0 mm | 2.24 m/s, 197° | - | - |
| 1777986827 | 21.11° C | - | - | 0 mm | 4.02 m/s, 184° | - | - |
| 1777986564 | 21.11° C | - | - | 0 mm | 2.24 m/s, 197° | - | - |
| 1777986528 | 21.11° C | - | - | 0 mm | 2.24 m/s, 197° | - | - |
| 1777986264 | 20.56° C | - | - | 0 mm | 2.68 m/s, 203° | - | - |
| 1777986228 | 20.56° C | - | - | 0 mm | 2.68 m/s, 203° | - | - |
| 1777985926 | 20.56° C | - | - | 0 mm | 2.24 m/s, 218° | - | - |
| 1777985670 | 20.56° C | - | - | 0 mm | 3.13 m/s, 210° | - | - |
| 1777985626 | 20.56° C | - | - | 0 mm | 3.13 m/s, 210° | - | - |
| 1777985327 | 20.56° C | - | - | 0 mm | 3.13 m/s, 225° | - | - |
| 1777985061 | 20.56° C | - | - | 0 mm | 3.13 m/s, 191° | - | - |
| 1777985024 | 20.56° C | - | - | 0 mm | 3.13 m/s, 191° | - | - |
| 1777984725 | 20° C | - | - | 0 mm | 3.58 m/s, 191° | - | - |
| 1777984426 | 20° C | - | - | 0 mm | 4.02 m/s, 203° | - | - |
| 1777984123 | 20° C | - | - | 0 mm | 3.58 m/s, 210° | - | - |
| 1777983824 | 20° C | - | - | 0 mm | 3.58 m/s, 197° | - | - |
* Rain latest hour (hover to see other rain measurements)
** Current wind speed in m/s (hover to see current wind gust speed)